createdAt,value
2022-11-27T00:01:27.009Z,102210.78
2022-11-27T00:03:54.399Z,102215.19
2022-11-27T00:06:23.614Z,102212.63
2022-11-27T00:08:50.811Z,102211.78
2022-11-27T00:11:22.477Z,102213.59
2022-11-27T00:13:50.164Z,102213.56
2022-11-27T00:16:18.065Z,102212.72
2022-11-27T00:18:45.455Z,102217.00
2022-11-27T00:21:26.753Z,102207.38
2022-11-27T00:23:54.794Z,102203.84
2022-11-27T00:26:22.061Z,102201.22
2022-11-27T00:28:49.024Z,102209.19
2022-11-27T00:31:22.152Z,102199.50
2022-11-27T00:33:48.858Z,102203.00
2022-11-27T00:36:17.161Z,102199.50
2022-11-27T00:38:43.833Z,102203.88
2022-11-27T00:41:22.205Z,102203.03
2022-11-27T00:43:49.276Z,102203.88
2022-11-27T00:46:17.337Z,102202.13
2022-11-27T00:48:44.373Z,102204.78
2022-11-27T00:51:13.761Z,102207.38
2022-11-27T00:53:40.876Z,102204.78
2022-11-27T00:56:07.959Z,102202.13
2022-11-27T00:58:34.550Z,102193.34
2022-11-27T01:01:05.963Z,102195.16
2022-11-27T01:03:32.937Z,102200.31
2022-11-27T01:06:04.537Z,102207.38
2022-11-27T01:08:31.938Z,102200.31
2022-11-27T01:10:58.945Z,102200.31
2022-11-27T01:13:27.194Z,102197.69
2022-11-27T01:16:18.069Z,102196.88
2022-11-27T01:18:45.764Z,102192.50
2022-11-27T01:21:13.905Z,102193.34
2022-11-27T01:23:40.906Z,102185.47
2022-11-27T01:26:09.140Z,102183.72
2022-11-27T01:28:36.571Z,102180.22
2022-11-27T01:31:09.042Z,102186.38
2022-11-27T01:33:36.325Z,102178.50
2022-11-27T01:36:05.557Z,102173.19
2022-11-27T01:38:32.784Z,102179.31
2022-11-27T01:41:01.660Z,102182.84
2022-11-27T01:43:46.344Z,102174.97
2022-11-27T01:46:22.023Z,102184.50
2022-11-27T01:48:48.856Z,102162.63
2022-11-27T01:51:16.122Z,102160.94
2022-11-27T01:53:42.942Z,102145.19
2022-11-27T01:56:09.713Z,102142.56
2022-11-27T01:58:36.562Z,102132.13
2022-11-27T02:01:04.675Z,102121.56
2022-11-27T02:03:31.830Z,102121.56
2022-11-27T02:05:58.438Z,102128.63
2022-11-27T02:08:25.305Z,102126.78
2022-11-27T02:11:03.907Z,102130.28
2022-11-27T02:13:39.732Z,102122.38
2022-11-27T02:16:28.328Z,102121.44
2022-11-27T02:19:26.788Z,102116.22
2022-11-27T02:22:00.725Z,102106.59
2022-11-27T02:24:33.459Z,102111.84
2022-11-27T02:27:25.214Z,102103.97
2022-11-27T02:29:55.493Z,102104.88
2022-11-27T02:32:32.401Z,102110.06
2022-11-27T02:35:08.959Z,102098.72
2022-11-27T02:37:40.504Z,102097.81
2022-11-27T02:40:26.152Z,102109.53
2022-11-27T02:43:15.003Z,102106.88
2022-11-27T02:45:44.546Z,102099.66
2022-11-27T02:48:13.222Z,102106.75
2022-11-27T02:50:41.068Z,102119.06
2022-11-27T02:53:15.340Z,102112.78
2022-11-27T02:55:41.913Z,102115.41
2022-11-27T02:58:11.004Z,102117.97
2022-11-27T03:00:38.397Z,102121.50
2022-11-27T03:03:07.415Z,102108.34
2022-11-27T03:05:36.950Z,102109.19
2022-11-27T03:08:23.787Z,102099.66
2022-11-27T03:10:58.035Z,102110.16
2022-11-27T03:13:24.987Z,102104.00
2022-11-27T03:16:12.143Z,102105.59
2022-11-27T03:18:56.699Z,102103.94
2022-11-27T03:21:31.048Z,102108.31
2022-11-27T03:23:58.108Z,102102.13
2022-11-27T03:26:25.555Z,102094.38
2022-11-27T03:28:53.945Z,102100.66
2022-11-27T03:31:21.534Z,102116.31
2022-11-27T03:33:48.231Z,102116.22
2022-11-27T03:36:17.392Z,102119.84
2022-11-27T03:38:45.371Z,102112.63
2022-11-27T03:41:24.781Z,102117.09
2022-11-27T03:44:26.678Z,102117.88
2022-11-27T03:46:56.829Z,102115.19
2022-11-27T03:50:05.257Z,102114.19
2022-11-27T03:53:13.368Z,102108.03
2022-11-27T03:55:46.960Z,102114.13
2022-11-27T03:58:22.439Z,102113.22
2022-11-27T04:00:50.371Z,102111.38
2022-11-27T04:03:23.772Z,102101.78
2022-11-27T04:05:50.419Z,102104.47
2022-11-27T04:08:17.110Z,102098.25
2022-11-27T04:10:43.772Z,102094.75
2022-11-27T04:13:10.412Z,102097.38
2022-11-27T04:15:37.073Z,102101.69
2022-11-27T04:18:03.901Z,102102.50
2022-11-27T04:20:30.551Z,102101.63
2022-11-27T04:22:57.614Z,102105.44
2022-11-27T04:25:24.290Z,102102.59
2022-11-27T04:27:51.345Z,102100.09
2022-11-27T04:30:18.572Z,102102.50
2022-11-27T04:32:45.289Z,102101.56
2022-11-27T04:35:12.005Z,102092.94
2022-11-27T04:37:38.620Z,102099.81
2022-11-27T04:40:06.488Z,102095.44
2022-11-27T04:42:33.232Z,102093.63
2022-11-27T04:44:59.845Z,102093.69
2022-11-27T04:47:26.516Z,102099.88
2022-11-27T04:49:53.154Z,102096.31
2022-11-27T04:52:19.784Z,102103.16
2022-11-27T04:54:46.446Z,102103.16
2022-11-27T04:57:13.075Z,102097.81
2022-11-27T04:59:39.689Z,102097.75
2022-11-27T05:02:06.556Z,102088.97
2022-11-27T05:04:33.301Z,102091.56
2022-11-27T05:06:59.914Z,102096.66
2022-11-27T05:09:26.592Z,102092.50
2022-11-27T05:11:53.221Z,102099.41
2022-11-27T05:14:21.840Z,102104.47
2022-11-27T05:16:50.590Z,102107.97
2022-11-27T05:19:18.699Z,102095.69
2022-11-27T05:21:46.119Z,102099.13
2022-11-27T05:24:13.776Z,102109.69
2022-11-27T05:26:40.854Z,102107.16
2022-11-27T05:29:08.258Z,102102.91
2022-11-27T05:31:35.196Z,102102.03
2022-11-27T05:34:02.231Z,102100.09
2022-11-27T05:36:29.572Z,102105.41
2022-11-27T05:38:56.552Z,102087.88
2022-11-27T05:41:23.676Z,102096.72
2022-11-27T05:43:50.285Z,102104.59
2022-11-27T05:46:18.969Z,102098.78
2022-11-27T05:48:45.643Z,102100.22
2022-11-27T05:51:12.357Z,102096.72
2022-11-27T05:53:39.293Z,102091.38
2022-11-27T05:56:12.182Z,102097.47
2022-11-27T05:58:39.822Z,102089.59
2022-11-27T06:01:07.035Z,102081.75
2022-11-27T06:03:33.898Z,102079.25
2022-11-27T06:06:06.660Z,102076.47
2022-11-27T06:08:33.420Z,102061.59
2022-11-27T06:11:00.026Z,102064.97
2022-11-27T06:13:26.643Z,102064.97
2022-11-27T06:15:53.241Z,102065.81
2022-11-27T06:18:19.909Z,102060.56
2022-11-27T06:20:52.760Z,102064.88
2022-11-27T06:23:19.828Z,102054.34
2022-11-27T06:25:46.526Z,102054.34
2022-11-27T06:28:13.247Z,102058.09
2022-11-27T06:30:39.814Z,102050.28
2022-11-27T06:33:06.499Z,102045.84
2022-11-27T06:35:33.120Z,102055.50
2022-11-27T06:37:59.742Z,102063.44
2022-11-27T06:40:26.362Z,102062.00
2022-11-27T06:42:53.140Z,102068.84
2022-11-27T06:45:19.756Z,102067.13
2022-11-27T06:47:46.386Z,102061.22
2022-11-27T06:50:13.232Z,102062.03
2022-11-27T06:52:40.799Z,102064.66
2022-11-27T06:55:08.052Z,102064.50
2022-11-27T06:57:34.647Z,102065.38
2022-11-27T07:00:01.418Z,102067.97
2022-11-27T07:02:28.563Z,102067.97
2022-11-27T07:04:55.343Z,102062.75
2022-11-27T07:07:22.212Z,102071.56
2022-11-27T07:09:49.062Z,102064.47
2022-11-27T07:12:15.850Z,102063.59
2022-11-27T07:14:42.760Z,102065.25
2022-11-27T07:17:09.503Z,102071.31
2022-11-27T07:19:36.210Z,102053.91
2022-11-27T07:22:03.007Z,102057.59
2022-11-27T07:24:29.720Z,102056.63
2022-11-27T07:26:56.443Z,102051.56
2022-11-27T07:29:23.275Z,102049.78
2022-11-27T07:31:51.498Z,102050.59
2022-11-27T07:34:21.657Z,102053.34
2022-11-27T07:36:48.868Z,102057.66
2022-11-27T07:39:25.171Z,102055.09
2022-11-27T07:41:59.804Z,102052.47
2022-11-27T07:44:26.788Z,102053.31
2022-11-27T07:46:53.427Z,102043.00
2022-11-27T07:49:23.728Z,102044.53
2022-11-27T07:51:50.519Z,102041.06
2022-11-27T07:54:17.149Z,102040.22
2022-11-27T07:56:43.868Z,102023.72
2022-11-27T07:59:10.582Z,102021.22
2022-11-27T08:01:37.422Z,102034.97
2022-11-27T08:04:04.172Z,102029.69
2022-11-27T08:06:30.997Z,102026.00
2022-11-27T08:08:57.812Z,102031.06
2022-11-27T08:11:27.390Z,102030.13
2022-11-27T08:13:59.611Z,102026.69
2022-11-27T08:16:27.001Z,102029.25
2022-11-27T08:18:54.053Z,102026.47
2022-11-27T08:21:20.858Z,102021.81
2022-11-27T08:23:47.758Z,102027.13
2022-11-27T08:26:14.859Z,102019.00
2022-11-27T08:28:42.369Z,102016.28
2022-11-27T08:31:10.923Z,102019.72
2022-11-27T08:33:38.108Z,102016.16
2022-11-27T08:36:08.106Z,102022.34
2022-11-27T08:38:35.916Z,102027.50
2022-11-27T08:41:04.863Z,102027.59
2022-11-27T08:43:32.259Z,102027.66
2022-11-27T08:45:59.031Z,102019.88
2022-11-27T08:48:26.067Z,102025.31
2022-11-27T08:50:52.970Z,102025.59
2022-11-27T08:53:19.998Z,102029.16
2022-11-27T08:55:46.730Z,102030.31
2022-11-27T08:58:13.804Z,102029.72
2022-11-27T09:00:41.351Z,102022.53
2022-11-27T09:03:10.444Z,102027.88
2022-11-27T09:05:37.326Z,102027.00
2022-11-27T09:08:05.533Z,102021.28
2022-11-27T09:10:32.552Z,102030.00
2022-11-27T09:12:59.693Z,102022.97
2022-11-27T09:15:26.513Z,102022.28
2022-11-27T09:17:53.378Z,102020.72
2022-11-27T09:20:20.256Z,102031.25
2022-11-27T09:22:47.099Z,102027.69
2022-11-27T09:25:13.846Z,102034.81
2022-11-27T09:27:40.535Z,102029.66
2022-11-27T09:30:08.063Z,102025.34
2022-11-27T09:32:35.099Z,102008.81
2022-11-27T09:35:01.752Z,102011.56
2022-11-27T09:37:28.414Z,102011.53
2022-11-27T09:39:55.733Z,102013.25
2022-11-27T09:42:59.797Z,102015.06
2022-11-27T09:45:27.225Z,102018.59
2022-11-27T09:47:57.211Z,102017.81
2022-11-27T09:50:41.701Z,102017.91
2022-11-27T09:53:26.895Z,102009.22
2022-11-27T09:55:54.904Z,102006.53
2022-11-27T09:58:40.127Z,101996.84
2022-11-27T10:01:15.377Z,101997.66
2022-11-27T10:03:43.158Z,101996.81
2022-11-27T10:06:26.216Z,102003.63
2022-11-27T10:09:00.173Z,101985.00
2022-11-27T10:11:32.096Z,101990.50
2022-11-27T10:14:25.087Z,101990.66
2022-11-27T10:17:12.768Z,101983.53
2022-11-27T10:19:47.690Z,101983.47
2022-11-27T10:22:44.260Z,101985.13
2022-11-27T10:25:22.061Z,101983.63
2022-11-27T10:28:01.421Z,101986.31
2022-11-27T10:30:29.819Z,101976.84
2022-11-27T10:32:59.056Z,101976.91
2022-11-27T10:35:28.346Z,101970.19
2022-11-27T10:38:07.472Z,101974.78
2022-11-27T10:40:38.679Z,101965.38
2022-11-27T10:43:18.063Z,101966.38
2022-11-27T10:45:49.253Z,101956.91
2022-11-27T10:48:16.088Z,101959.63
2022-11-27T10:50:43.465Z,101957.25
2022-11-27T10:53:35.237Z,101953.84
2022-11-27T10:56:04.832Z,101959.13
2022-11-27T10:58:42.034Z,101951.38
2022-11-27T11:01:11.585Z,101957.53
2022-11-27T11:03:38.336Z,101953.25
2022-11-27T11:06:23.710Z,101943.69
2022-11-27T11:09:05.390Z,101942.97
2022-11-27T11:11:32.017Z,101944.69
2022-11-27T11:13:58.660Z,101931.56
2022-11-27T11:16:34.771Z,101922.84
2022-11-27T11:19:02.850Z,101919.34
2022-11-27T11:21:35.407Z,101918.41
2022-11-27T11:24:07.418Z,101927.19
2022-11-27T11:26:37.565Z,101929.81
2022-11-27T11:29:07.284Z,101938.53
2022-11-27T11:31:38.698Z,101939.41
2022-11-27T11:34:18.841Z,101937.53
2022-11-27T11:37:00.756Z,101934.72
2022-11-27T11:39:30.162Z,101942.44
2022-11-27T11:41:57.301Z,101946.75
2022-11-27T11:44:31.123Z,101942.25
2022-11-27T11:46:57.693Z,101930.78
2022-11-27T11:49:26.484Z,101934.34
2022-11-27T11:52:12.636Z,101930.88
2022-11-27T11:54:50.223Z,101931.81
2022-11-27T11:57:40.939Z,101923.97
2022-11-27T12:00:14.664Z,101916.03
2022-11-27T12:03:02.126Z,101912.53
2022-11-27T12:05:37.472Z,101913.34
2022-11-27T12:08:31.891Z,101908.97
2022-11-27T12:11:09.445Z,101912.38
2022-11-27T12:13:46.067Z,101903.59
2022-11-27T12:16:33.939Z,101913.16
2022-11-27T12:19:22.309Z,101892.19
2022-11-27T12:22:00.079Z,101892.13
2022-11-27T12:24:44.924Z,101878.97
2022-11-27T12:27:27.409Z,101877.97
2022-11-27T12:30:06.563Z,101871.75
2022-11-27T12:32:54.317Z,101876.25
2022-11-27T12:35:39.607Z,101874.47
2022-11-27T12:38:28.710Z,101870.09
2022-11-27T12:41:16.065Z,101862.19
2022-11-27T12:43:48.049Z,101867.44
2022-11-27T12:46:26.756Z,101855.25
2022-11-27T12:48:58.132Z,101852.56
2022-11-27T12:51:30.035Z,101847.19
2022-11-27T12:54:06.304Z,101848.09
2022-11-27T12:56:40.654Z,101847.22
2022-11-27T12:59:25.886Z,101846.34
2022-11-27T13:01:59.581Z,101846.25
2022-11-27T13:04:33.166Z,101837.53
2022-11-27T13:07:13.721Z,101831.34
2022-11-27T13:10:03.580Z,101827.63
2022-11-27T13:12:34.520Z,101824.91
2022-11-27T13:15:06.819Z,101824.00
2022-11-27T13:17:42.772Z,101824.81
2022-11-27T13:20:16.548Z,101821.28
2022-11-27T13:22:43.640Z,101805.34
2022-11-27T13:25:14.647Z,101810.53
2022-11-27T13:27:44.784Z,101803.59
2022-11-27T13:30:32.752Z,101810.56
2022-11-27T13:33:03.744Z,101805.97
2022-11-27T13:35:43.372Z,101801.56
2022-11-27T13:38:24.814Z,101799.69
2022-11-27T13:40:53.035Z,101804.06
2022-11-27T13:43:19.571Z,101807.38
2022-11-27T13:45:46.470Z,101803.97
2022-11-27T13:48:27.134Z,101803.81
2022-11-27T13:50:54.412Z,101797.59
2022-11-27T13:53:34.253Z,101793.34
2022-11-27T13:56:00.879Z,101786.19
2022-11-27T13:58:38.832Z,101792.25
2022-11-27T14:01:13.251Z,101787.91
2022-11-27T14:03:40.102Z,101784.25
2022-11-27T14:06:28.249Z,101785.81
2022-11-27T14:08:58.250Z,101790.06
2022-11-27T14:11:40.262Z,101786.31
2022-11-27T14:14:24.214Z,101784.81
2022-11-27T14:16:59.274Z,101769.63
2022-11-27T14:19:34.616Z,101773.00
2022-11-27T14:22:02.202Z,101770.25
2022-11-27T14:24:29.866Z,101776.47
2022-11-27T14:26:56.889Z,101775.50
2022-11-27T14:29:24.403Z,101781.22
2022-11-27T14:31:58.897Z,101785.41
2022-11-27T14:34:33.155Z,101781.69
2022-11-27T14:36:59.977Z,101779.78
2022-11-27T14:39:37.412Z,101780.91
2022-11-27T14:42:17.460Z,101777.94
2022-11-27T14:44:44.230Z,101785.03
2022-11-27T14:47:18.793Z,101782.22
2022-11-27T14:49:45.561Z,101785.47
2022-11-27T14:52:15.101Z,101794.03
2022-11-27T14:54:42.111Z,101793.91
2022-11-27T14:57:15.252Z,101792.94
2022-11-27T14:59:44.806Z,101784.66
2022-11-27T15:02:11.428Z,101785.56
2022-11-27T15:04:40.768Z,101778.41
2022-11-27T15:07:18.929Z,101780.09
2022-11-27T15:09:50.773Z,101766.81
2022-11-27T15:12:34.619Z,101766.59
2022-11-27T15:15:19.938Z,101763.06
2022-11-27T15:17:49.607Z,101763.00
2022-11-27T15:20:24.243Z,101766.03
2022-11-27T15:22:52.419Z,101758.97
2022-11-27T15:25:29.205Z,101753.00
2022-11-27T15:27:55.825Z,101751.00
2022-11-27T15:30:22.583Z,101749.41
2022-11-27T15:32:51.559Z,101745.88
2022-11-27T15:35:21.370Z,101752.75
2022-11-27T15:37:48.102Z,101743.28
2022-11-27T15:40:38.135Z,101739.31
2022-11-27T15:43:15.759Z,101746.94
2022-11-27T15:45:43.627Z,101750.13
2022-11-27T15:48:18.177Z,101743.25
2022-11-27T15:50:51.471Z,101748.34
2022-11-27T15:53:18.624Z,101747.28
2022-11-27T15:55:47.500Z,101737.00
2022-11-27T15:58:14.248Z,101736.25
2022-11-27T16:00:40.947Z,101743.91
2022-11-27T16:03:07.641Z,101738.59
2022-11-27T16:05:34.439Z,101734.44
2022-11-27T16:08:02.231Z,101732.84
2022-11-27T16:10:28.869Z,101730.88
2022-11-27T16:12:57.564Z,101723.75
2022-11-27T16:15:26.664Z,101716.91
2022-11-27T16:17:56.823Z,101716.44
2022-11-27T16:20:23.485Z,101717.09
2022-11-27T16:22:50.089Z,101720.41
2022-11-27T16:25:16.795Z,101717.47
2022-11-27T16:27:43.400Z,101715.50
2022-11-27T16:30:10.584Z,101707.00
2022-11-27T16:32:38.963Z,101708.41
2022-11-27T16:35:06.674Z,101692.34
2022-11-27T16:37:33.280Z,101700.38
2022-11-27T16:39:59.852Z,101698.81
2022-11-27T16:42:26.461Z,101697.97
2022-11-27T16:44:53.151Z,101691.47
2022-11-27T16:47:19.835Z,101687.00
2022-11-27T16:49:50.183Z,101675.06
2022-11-27T16:52:17.138Z,101681.00
2022-11-27T16:54:46.564Z,101678.66
2022-11-27T16:57:13.246Z,101677.69
2022-11-27T16:59:39.826Z,101682.66
2022-11-27T17:02:06.727Z,101680.28
2022-11-27T17:04:33.975Z,101680.22
2022-11-27T17:07:03.965Z,101675.75
2022-11-27T17:09:31.253Z,101673.13
2022-11-27T17:11:57.896Z,101668.53
2022-11-27T17:14:26.973Z,101665.31
2022-11-27T17:16:53.684Z,101670.00
2022-11-27T17:19:24.702Z,101663.25
2022-11-27T17:21:51.339Z,101652.28
2022-11-27T17:24:18.140Z,101651.84
2022-11-27T17:26:45.777Z,101648.34
2022-11-27T17:29:13.626Z,101654.47
2022-11-27T17:31:42.114Z,101650.00
2022-11-27T17:34:11.591Z,101646.41
2022-11-27T17:36:38.847Z,101649.47
2022-11-27T17:39:06.037Z,101648.00
2022-11-27T17:41:33.389Z,101642.25
2022-11-27T17:44:00.498Z,101643.34
2022-11-27T17:46:28.689Z,101626.75
2022-11-27T17:48:57.982Z,101628.22
2022-11-27T17:51:25.071Z,101623.78
2022-11-27T17:54:10.757Z,101629.97
2022-11-27T17:56:37.418Z,101629.91
2022-11-27T17:59:04.212Z,101630.72
2022-11-27T18:01:31.298Z,101628.25
2022-11-27T18:04:07.164Z,101614.13
2022-11-27T18:06:36.418Z,101611.56
2022-11-27T18:09:05.562Z,101607.22
2022-11-27T18:11:36.865Z,101597.84
2022-11-27T18:14:04.236Z,101593.47
2022-11-27T18:16:36.811Z,101591.09
2022-11-27T18:19:06.196Z,101588.56
2022-11-27T18:21:33.105Z,101595.06
2022-11-27T18:24:22.600Z,101590.56
2022-11-27T18:27:07.792Z,101584.16
2022-11-27T18:29:40.084Z,101575.31
2022-11-27T18:32:07.058Z,101564.84
2022-11-27T18:34:33.795Z,101569.41
2022-11-27T18:37:01.745Z,101569.47
2022-11-27T18:39:28.362Z,101558.22
2022-11-27T18:41:54.943Z,101567.16
2022-11-27T18:44:24.523Z,101561.75
2022-11-27T18:46:51.334Z,101564.22
2022-11-27T18:49:17.921Z,101569.50
2022-11-27T18:51:45.049Z,101570.28
2022-11-27T18:54:11.748Z,101573.81
2022-11-27T18:56:38.399Z,101573.69
2022-11-27T18:59:05.896Z,101579.94
2022-11-27T19:01:39.683Z,101579.03
2022-11-27T19:04:07.933Z,101582.66
2022-11-27T19:06:35.352Z,101578.09
2022-11-27T19:09:02.122Z,101579.78
2022-11-27T19:11:35.281Z,101587.91
2022-11-27T19:14:02.205Z,101579.78
2022-11-27T19:16:31.547Z,101579.16
2022-11-27T19:18:59.490Z,101580.94
2022-11-27T19:21:33.240Z,101577.47
2022-11-27T19:24:01.234Z,101573.28
2022-11-27T19:26:30.960Z,101563.75
2022-11-27T19:28:59.651Z,101565.56
2022-11-27T19:31:26.950Z,101564.59
2022-11-27T19:33:55.454Z,101567.31
2022-11-27T19:36:22.837Z,101558.59
2022-11-27T19:38:54.669Z,101558.69
2022-11-27T19:41:21.270Z,101564.69
2022-11-27T19:43:48.047Z,101562.00
2022-11-27T19:46:26.945Z,101555.13
2022-11-27T19:48:58.143Z,101551.81
2022-11-27T19:51:25.935Z,101558.75
2022-11-27T19:53:52.682Z,101555.91
2022-11-27T19:56:19.596Z,101556.78
2022-11-27T19:58:46.217Z,101552.72
2022-11-27T20:01:15.848Z,101551.53
2022-11-27T20:03:42.994Z,101556.91
2022-11-27T20:06:14.250Z,101545.63
2022-11-27T20:08:42.853Z,101543.16
2022-11-27T20:11:12.130Z,101540.50
2022-11-27T20:13:38.771Z,101543.94
2022-11-27T20:16:09.674Z,101536.00
2022-11-27T20:18:36.519Z,101541.25
2022-11-27T20:21:11.600Z,101538.63
2022-11-27T20:23:39.250Z,101537.66
2022-11-27T20:26:07.370Z,101530.72
2022-11-27T20:28:34.376Z,101529.03
2022-11-27T20:31:02.991Z,101532.63
2022-11-27T20:33:31.372Z,101539.47
2022-11-27T20:35:58.420Z,101535.13
2022-11-27T20:38:26.554Z,101532.50
2022-11-27T20:40:53.273Z,101534.72
2022-11-27T20:43:19.995Z,101534.28
2022-11-27T20:45:46.638Z,101527.00
2022-11-27T20:48:13.405Z,101523.72
2022-11-27T20:50:40.079Z,101520.13
2022-11-27T20:53:06.887Z,101512.41
2022-11-27T20:55:34.540Z,101513.13
2022-11-27T20:58:01.221Z,101507.06
2022-11-27T21:00:28.001Z,101510.44
2022-11-27T21:02:54.696Z,101504.25
2022-11-27T21:05:21.340Z,101496.41
2022-11-27T21:07:47.972Z,101499.00
2022-11-27T21:10:16.676Z,101501.69
2022-11-27T21:12:43.891Z,101500.78
2022-11-27T21:15:13.101Z,101492.22
2022-11-27T21:17:40.877Z,101480.84
2022-11-27T21:20:08.189Z,101481.63
2022-11-27T21:22:34.838Z,101478.81
2022-11-27T21:25:01.591Z,101480.75
2022-11-27T21:27:28.888Z,101474.66
2022-11-27T21:29:55.585Z,101472.75
2022-11-27T21:32:23.255Z,101476.25
2022-11-27T21:34:50.202Z,101477.13
2022-11-27T21:37:17.219Z,101468.47
2022-11-27T21:39:44.935Z,101467.44
2022-11-27T21:42:11.794Z,101455.31
2022-11-27T21:44:42.320Z,101462.16
2022-11-27T21:47:12.628Z,101455.19
2022-11-27T21:49:40.536Z,101455.44
2022-11-27T21:52:08.962Z,101455.06
2022-11-27T21:54:37.134Z,101461.19
2022-11-27T21:57:03.947Z,101452.78
2022-11-27T21:59:30.997Z,101459.63
2022-11-27T22:01:59.702Z,101458.75
2022-11-27T22:04:26.667Z,101454.41
2022-11-27T22:06:54.048Z,101457.75
2022-11-27T22:09:23.158Z,101460.13
2022-11-27T22:11:52.332Z,101454.13
2022-11-27T22:14:19.619Z,101452.47
2022-11-27T22:16:47.073Z,101458.63
2022-11-27T22:19:15.380Z,101463.91
2022-11-27T22:21:43.903Z,101450.06
2022-11-27T22:24:15.040Z,101455.84
2022-11-27T22:26:47.691Z,101451.63
2022-11-27T22:29:14.522Z,101451.78
2022-11-27T22:31:41.488Z,101440.34
2022-11-27T22:34:08.448Z,101447.16
2022-11-27T22:36:37.339Z,101436.72
2022-11-27T22:39:06.582Z,101447.00
2022-11-27T22:41:36.583Z,101435.75
2022-11-27T22:44:08.925Z,101446.06
2022-11-27T22:46:36.845Z,101449.56
2022-11-27T22:49:05.938Z,101451.97
2022-11-27T22:51:34.633Z,101449.59
2022-11-27T22:54:02.509Z,101441.75
2022-11-27T22:56:29.322Z,101438.25
2022-11-27T22:59:17.549Z,101436.19
2022-11-27T23:01:43.486Z,101429.41
2022-11-27T23:04:10.073Z,101435.50
2022-11-27T23:06:37.083Z,101431.09
2022-11-27T23:09:04.058Z,101433.88
2022-11-27T23:11:30.737Z,101422.47
2022-11-27T23:13:58.198Z,101433.94
2022-11-27T23:16:24.939Z,101433.78
2022-11-27T23:18:51.749Z,101426.00
2022-11-27T23:21:20.230Z,101425.00
2022-11-27T23:23:47.050Z,101429.34
2022-11-27T23:26:18.199Z,101418.38
2022-11-27T23:28:52.109Z,101421.63
2022-11-27T23:31:29.952Z,101418.94
2022-11-27T23:33:58.594Z,101412.09
2022-11-27T23:36:25.426Z,101412.81
2022-11-27T23:38:52.026Z,101412.78
2022-11-27T23:41:24.206Z,101408.63
2022-11-27T23:43:51.827Z,101418.91
2022-11-27T23:46:20.587Z,101401.50
2022-11-27T23:48:47.341Z,101405.72
2022-11-27T23:51:15.325Z,101399.72
2022-11-27T23:53:42.094Z,101400.25
2022-11-27T23:56:11.404Z,101408.34
2022-11-27T23:58:41.126Z,101402.94
